createdAt,value
2018-04-18T00:00:04.157Z,70.21
2018-04-18T00:02:32.704Z,69.68
2018-04-18T00:05:01.185Z,69.14
2018-04-18T00:07:29.692Z,69.53
2018-04-18T00:09:58.209Z,69.14
2018-04-18T00:12:26.741Z,69.04
2018-04-18T00:14:55.241Z,69.04
2018-04-18T00:17:23.709Z,68.56
2018-04-18T00:19:52.225Z,68.47
2018-04-18T00:24:58.874Z,68.11
2018-04-18T00:27:27.377Z,67.55
2018-04-18T00:29:55.896Z,67.24
2018-04-18T00:32:24.358Z,66.92
2018-04-18T00:34:52.896Z,66.91
2018-04-18T00:37:21.500Z,66.76
2018-04-18T00:39:49.984Z,66.73
2018-04-18T00:42:18.505Z,66.68
2018-04-18T00:44:47.029Z,66.88
2018-04-18T00:47:15.530Z,66.85
2018-04-18T00:49:43.997Z,66.87
2018-04-18T00:52:12.516Z,67.15
2018-04-18T00:54:40.996Z,68.34
2018-04-18T00:57:09.513Z,68.81
2018-04-18T00:59:38.049Z,69.62
2018-04-18T01:02:06.569Z,69.50
2018-04-18T01:04:35.105Z,69.92
2018-04-18T01:07:03.636Z,69.85
2018-04-18T01:09:32.164Z,68.67
2018-04-18T01:12:00.662Z,68.98
2018-04-18T01:14:29.234Z,69.07
2018-04-18T01:16:57.709Z,69.11
2018-04-18T01:19:26.245Z,69.31
2018-04-18T01:21:54.789Z,69.73
2018-04-18T01:24:23.300Z,70.20
2018-04-18T01:26:51.817Z,70.53
2018-04-18T01:29:20.334Z,70.43
2018-04-18T01:31:48.814Z,70.42
2018-04-18T01:34:17.301Z,70.37
2018-04-18T01:36:45.785Z,70.13
2018-04-18T01:39:14.308Z,70.55
2018-04-18T01:41:42.816Z,70.06
2018-04-18T01:44:11.330Z,69.84
2018-04-18T01:46:39.849Z,70.17
2018-04-18T01:49:20.137Z,70.40
2018-04-18T01:51:48.640Z,70.64
2018-04-18T01:54:17.186Z,70.34
2018-04-18T01:56:45.697Z,70.02
2018-04-18T01:59:14.209Z,70.28
2018-04-18T02:01:42.709Z,70.26
2018-04-18T02:04:11.221Z,70.50
2018-04-18T02:06:39.727Z,70.80
2018-04-18T02:09:08.257Z,71.04
2018-04-18T02:11:36.792Z,70.52
2018-04-18T02:14:05.342Z,70.58
2018-04-18T02:16:33.820Z,70.56
2018-04-18T02:19:02.336Z,70.56
2018-04-18T02:21:30.871Z,70.56
2018-04-18T02:23:59.332Z,70.49
2018-04-18T02:26:27.827Z,70.25
2018-04-18T02:28:56.369Z,70.19
2018-04-18T02:31:24.869Z,70.13
2018-04-18T02:33:53.389Z,70.21
2018-04-18T02:36:21.972Z,70.67
2018-04-18T02:38:50.476Z,70.62
2018-04-18T02:41:18.952Z,70.79
2018-04-18T02:43:47.473Z,70.61
2018-04-18T02:46:16.002Z,70.39
2018-04-18T02:48:44.497Z,70.25
2018-04-18T02:51:13.000Z,70.28
2018-04-18T02:53:41.481Z,70.38
2018-04-18T02:56:09.995Z,70.78
2018-04-18T02:58:38.477Z,70.77
2018-04-18T03:01:06.985Z,70.55
2018-04-18T03:03:35.485Z,70.65
2018-04-18T03:06:04.021Z,70.68
2018-04-18T03:08:32.917Z,70.66
2018-04-18T03:11:01.438Z,70.49
2018-04-18T03:13:29.949Z,70.34
2018-04-18T03:15:58.461Z,70.22
2018-04-18T03:18:26.937Z,70.20
2018-04-18T03:20:55.465Z,70.20
2018-04-18T03:23:23.950Z,70.30
2018-04-18T03:25:52.460Z,70.21
2018-04-18T03:28:20.928Z,70.22
2018-04-18T03:30:49.449Z,70.54
2018-04-18T03:33:17.928Z,70.46
2018-04-18T03:35:46.461Z,70.69
2018-04-18T03:38:14.945Z,70.71
2018-04-18T03:40:43.455Z,70.42
2018-04-18T03:43:11.983Z,70.51
2018-04-18T03:45:40.449Z,70.64
2018-04-18T03:48:08.957Z,70.66
2018-04-18T03:50:37.464Z,70.80
2018-04-18T03:53:05.979Z,70.70
2018-04-18T03:55:34.464Z,70.45
2018-04-18T03:58:02.986Z,70.40
2018-04-18T04:00:31.450Z,70.69
2018-04-18T04:02:59.974Z,70.30
2018-04-18T04:05:28.455Z,70.44
2018-04-18T04:07:56.927Z,70.67
2018-04-18T04:10:25.475Z,70.37
2018-04-18T04:12:54.005Z,70.06
2018-04-18T04:15:22.473Z,69.69
2018-04-18T04:18:02.682Z,69.45
2018-04-18T04:20:42.701Z,69.27
2018-04-18T04:23:22.749Z,68.87
2018-04-18T04:25:51.245Z,69.28
2018-04-18T04:28:19.735Z,69.38
2018-04-18T04:30:48.269Z,69.29
2018-04-18T04:33:16.751Z,67.90
2018-04-18T04:35:45.260Z,67.24
2018-04-18T04:38:13.736Z,66.53
2018-04-18T04:40:42.280Z,65.87
2018-04-18T04:43:10.757Z,65.13
2018-04-18T04:45:39.239Z,64.89
2018-04-18T04:48:07.760Z,64.62
2018-04-18T04:50:36.237Z,64.11
2018-04-18T04:53:04.749Z,63.59
2018-04-18T04:55:33.240Z,61.95
2018-04-18T04:58:01.814Z,61.63
2018-04-18T05:00:30.309Z,60.93
2018-04-18T05:02:58.840Z,60.32
2018-04-18T05:05:27.317Z,59.57
2018-04-18T05:07:55.832Z,60.97
2018-04-18T05:10:24.337Z,60.28
2018-04-18T05:12:52.835Z,59.43
2018-04-18T05:15:21.385Z,59.30
2018-04-18T05:17:49.877Z,59.40
2018-04-18T05:20:18.368Z,57.27
2018-04-18T05:22:46.841Z,57.27
2018-04-18T05:25:15.309Z,56.68
2018-04-18T05:27:43.824Z,57.31
2018-04-18T05:30:12.313Z,56.97
2018-04-18T05:32:40.825Z,56.56
2018-04-18T05:35:09.301Z,56.53
2018-04-18T05:37:37.813Z,56.11
2018-04-18T05:40:06.342Z,55.85
2018-04-18T05:42:34.861Z,54.21
2018-04-18T05:45:03.453Z,53.38
2018-04-18T05:47:31.903Z,53.06
2018-04-18T05:50:00.422Z,53.23
2018-04-18T05:52:28.954Z,52.31
2018-04-18T05:54:57.424Z,52.29
2018-04-18T05:57:25.932Z,52.62
2018-04-18T05:59:54.614Z,53.46
2018-04-18T06:02:23.149Z,52.52
2018-04-18T06:04:51.692Z,52.35
2018-04-18T06:07:20.181Z,51.07
2018-04-18T06:09:48.668Z,49.50
2018-04-18T06:12:17.208Z,46.50
2018-04-18T06:14:45.752Z,45.86
2018-04-18T06:17:14.247Z,46.34
2018-04-18T06:19:42.777Z,46.00
2018-04-18T06:22:11.277Z,45.96
2018-04-18T06:24:39.793Z,45.93
2018-04-18T06:27:08.314Z,46.62
2018-04-18T06:29:36.817Z,45.81
2018-04-18T06:32:05.328Z,45.38
2018-04-18T06:34:33.889Z,46.13
2018-04-18T06:37:02.411Z,45.42
2018-04-18T06:39:30.912Z,44.54
2018-04-18T06:41:59.390Z,44.43
2018-04-18T06:44:27.892Z,44.31
2018-04-18T06:46:56.361Z,45.17
2018-04-18T06:49:24.860Z,44.65
2018-04-18T06:51:53.323Z,43.81
2018-04-18T06:54:21.841Z,42.65
2018-04-18T06:56:50.325Z,42.55
2018-04-18T06:59:18.815Z,42.64
2018-04-18T07:01:47.333Z,41.98
2018-04-18T07:04:15.862Z,42.28
2018-04-18T07:06:44.332Z,42.25
2018-04-18T07:09:12.801Z,41.14
2018-04-18T07:11:41.316Z,40.30
2018-04-18T07:14:09.828Z,40.79
2018-04-18T07:16:38.348Z,40.88
2018-04-18T07:19:06.805Z,39.04
2018-04-18T07:21:35.317Z,37.98
2018-04-18T07:24:03.797Z,38.55
2018-04-18T07:26:32.352Z,39.41
2018-04-18T07:29:00.817Z,37.88
2018-04-18T07:31:29.284Z,37.44
2018-04-18T07:33:57.797Z,37.50
2018-04-18T07:36:26.261Z,37.97
2018-04-18T07:38:54.725Z,38.54
2018-04-18T07:41:23.250Z,37.79
2018-04-18T07:43:51.872Z,37.63
2018-04-18T07:46:20.351Z,37.61
2018-04-18T07:48:48.793Z,37.50
2018-04-18T07:51:17.336Z,37.46
2018-04-18T07:53:45.808Z,37.23
2018-04-18T07:56:14.313Z,37.47
2018-04-18T07:58:42.780Z,37.26
2018-04-18T08:01:11.291Z,37.66
2018-04-18T08:03:39.767Z,37.37
2018-04-18T08:06:08.274Z,37.55
2018-04-18T08:08:36.792Z,37.10
2018-04-18T08:11:05.321Z,37.14
2018-04-18T08:13:33.788Z,37.28
2018-04-18T08:16:02.300Z,37.23
2018-04-18T08:18:30.765Z,37.59
2018-04-18T08:20:59.332Z,37.15
2018-04-18T08:23:27.841Z,37.85
2018-04-18T08:25:56.316Z,37.66
2018-04-18T08:28:24.828Z,37.31
2018-04-18T08:30:53.333Z,37.41
2018-04-18T08:33:21.875Z,36.61
2018-04-18T08:35:50.377Z,37.03
2018-04-18T08:38:18.896Z,37.13
2018-04-18T08:40:47.407Z,37.02
2018-04-18T08:43:15.888Z,36.47
2018-04-18T08:45:44.344Z,36.59
2018-04-18T08:48:12.850Z,35.77
2018-04-18T08:50:41.361Z,35.28
2018-04-18T08:53:10.087Z,35.47
2018-04-18T08:55:38.635Z,35.61
2018-04-18T08:58:07.100Z,34.86
2018-04-18T09:00:35.592Z,34.80
2018-04-18T09:03:04.102Z,34.85
2018-04-18T09:05:32.595Z,34.84
2018-04-18T09:08:01.076Z,34.87
2018-04-18T09:10:29.612Z,34.26
2018-04-18T09:12:58.127Z,33.20
2018-04-18T09:15:26.583Z,33.50
2018-04-18T09:17:55.080Z,32.79
2018-04-18T09:20:23.558Z,33.01
2018-04-18T09:22:52.057Z,33.24
2018-04-18T09:25:20.524Z,32.82
2018-04-18T09:27:49.014Z,32.71
2018-04-18T09:30:17.512Z,32.43
2018-04-18T09:32:46.088Z,29.38
2018-04-18T09:35:14.548Z,30.28
2018-04-18T09:37:43.053Z,31.15
2018-04-18T09:40:11.579Z,30.28
2018-04-18T09:42:40.087Z,27.21
2018-04-18T09:45:08.594Z,26.10
2018-04-18T09:47:37.060Z,26.97
2018-04-18T09:50:05.610Z,27.62
2018-04-18T09:52:34.139Z,26.50
2018-04-18T09:55:02.665Z,26.21
2018-04-18T09:57:31.137Z,28.58
2018-04-18T09:59:59.659Z,29.18
2018-04-18T10:02:29.936Z,30.22
2018-04-18T10:05:03.803Z,28.66
2018-04-18T10:07:32.277Z,29.21
2018-04-18T10:10:01.397Z,27.52
2018-04-18T10:12:29.857Z,26.38
2018-04-18T10:14:58.356Z,26.47
2018-04-18T10:17:26.868Z,27.06
2018-04-18T10:19:55.421Z,29.19
2018-04-18T10:22:23.927Z,26.74
2018-04-18T10:24:52.414Z,26.03
2018-04-18T10:27:20.931Z,26.03
2018-04-18T10:29:49.443Z,26.46
2018-04-18T10:32:17.885Z,26.12
2018-04-18T10:34:46.351Z,25.16
2018-04-18T10:37:14.883Z,25.10
2018-04-18T10:39:43.403Z,25.58
2018-04-18T10:42:11.957Z,24.89
2018-04-18T10:44:40.476Z,25.71
2018-04-18T10:47:08.973Z,24.40
2018-04-18T10:49:37.494Z,25.04
2018-04-18T10:52:06.025Z,25.65
2018-04-18T10:54:34.610Z,24.94
2018-04-18T10:57:03.084Z,24.93
2018-04-18T10:59:31.605Z,25.29
2018-04-18T11:02:00.072Z,25.74
2018-04-18T11:04:28.550Z,27.47
2018-04-18T11:06:57.077Z,24.79
2018-04-18T11:09:25.645Z,25.35
2018-04-18T11:11:54.143Z,26.65
2018-04-18T11:14:22.653Z,26.76
2018-04-18T11:16:51.207Z,26.99
2018-04-18T11:19:19.665Z,25.66
2018-04-18T11:21:48.173Z,26.06
2018-04-18T11:24:16.647Z,25.17
2018-04-18T11:26:45.157Z,25.86
2018-04-18T11:29:13.659Z,26.60
2018-04-18T11:31:42.125Z,25.53
2018-04-18T11:34:10.622Z,25.35
2018-04-18T11:36:39.102Z,25.07
2018-04-18T11:39:07.637Z,25.80
2018-04-18T11:41:36.107Z,26.25
2018-04-18T11:44:04.673Z,26.08
2018-04-18T11:46:33.161Z,26.12
2018-04-18T11:49:01.659Z,26.50
2018-04-18T11:51:30.172Z,26.66
2018-04-18T11:53:58.741Z,25.82
2018-04-18T11:56:27.207Z,24.36
2018-04-18T11:58:55.721Z,23.83
2018-04-18T12:01:24.278Z,23.99
2018-04-18T12:03:52.788Z,24.31
2018-04-18T12:06:21.289Z,25.37
2018-04-18T12:08:49.781Z,24.05
2018-04-18T12:11:18.239Z,23.68
2018-04-18T12:13:46.761Z,24.04
2018-04-18T12:16:15.233Z,23.45
2018-04-18T12:18:44.057Z,23.90
2018-04-18T12:21:12.540Z,24.21
2018-04-18T12:23:41.006Z,24.87
2018-04-18T12:26:09.552Z,23.94
2018-04-18T12:28:38.008Z,24.39
2018-04-18T12:31:06.492Z,24.88
2018-04-18T12:33:35.010Z,23.93
2018-04-18T12:36:03.664Z,24.31
2018-04-18T12:38:32.198Z,25.10
2018-04-18T12:41:00.710Z,23.97
2018-04-18T12:43:29.237Z,24.39
2018-04-18T12:45:57.701Z,24.14
2018-04-18T12:48:26.215Z,23.87
2018-04-18T12:50:54.676Z,24.15
2018-04-18T12:53:23.141Z,24.21
2018-04-18T12:55:51.644Z,24.80
2018-04-18T12:58:20.152Z,25.44
2018-04-18T13:00:48.658Z,25.12
2018-04-18T13:03:17.116Z,24.29
2018-04-18T13:05:45.608Z,24.12
2018-04-18T13:08:14.096Z,24.43
2018-04-18T13:10:42.662Z,24.58
2018-04-18T13:13:11.277Z,24.94
2018-04-18T13:15:39.814Z,25.03
2018-04-18T13:18:08.318Z,24.49
2018-04-18T13:20:36.816Z,24.14
2018-04-18T13:23:05.303Z,24.61
2018-04-18T13:25:33.805Z,23.93
2018-04-18T13:28:02.308Z,23.29
2018-04-18T13:30:30.845Z,23.89
2018-04-18T13:32:59.326Z,24.20
2018-04-18T13:35:27.832Z,23.61
2018-04-18T13:37:56.300Z,23.78
2018-04-18T13:40:24.850Z,24.59
2018-04-18T13:42:53.374Z,25.70
2018-04-18T13:45:21.936Z,26.69
2018-04-18T13:47:50.416Z,26.99
2018-04-18T13:50:18.911Z,26.17
2018-04-18T13:52:47.408Z,26.43
2018-04-18T13:55:15.882Z,26.25
2018-04-18T13:57:44.397Z,26.27
2018-04-18T14:00:12.894Z,26.44
2018-04-18T14:02:41.516Z,26.50
2018-04-18T14:05:09.997Z,26.86
2018-04-18T14:07:38.502Z,27.34
2018-04-18T14:10:06.999Z,26.65
2018-04-18T14:12:35.468Z,26.97
2018-04-18T14:15:03.992Z,26.48
2018-04-18T14:17:32.507Z,26.07
2018-04-18T14:20:01.032Z,26.39
2018-04-18T14:22:29.508Z,26.32
2018-04-18T14:24:58.005Z,26.33
2018-04-18T14:27:26.556Z,26.19
2018-04-18T14:29:55.081Z,26.12
2018-04-18T14:32:23.620Z,25.53
2018-04-18T14:34:52.103Z,25.18
2018-04-18T14:37:20.594Z,25.17
2018-04-18T14:39:49.059Z,24.87
2018-04-18T14:42:17.519Z,24.75
2018-04-18T14:44:46.040Z,24.83
2018-04-18T14:47:14.526Z,25.08
2018-04-18T14:49:42.986Z,25.88
2018-04-18T14:52:11.523Z,26.35
2018-04-18T14:54:39.985Z,26.57
2018-04-18T14:57:08.485Z,26.54
2018-04-18T14:59:36.948Z,26.84
2018-04-18T15:02:05.452Z,27.60
2018-04-18T15:04:33.928Z,27.42
2018-04-18T15:07:02.418Z,28.00
2018-04-18T15:09:30.913Z,27.84
2018-04-18T15:11:59.420Z,28.55
2018-04-18T15:14:27.920Z,28.48
2018-04-18T15:16:56.420Z,28.95
2018-04-18T15:19:24.873Z,29.71
2018-04-18T15:21:53.369Z,30.28
2018-04-18T15:24:21.807Z,30.53
2018-04-18T15:26:50.308Z,31.12
2018-04-18T15:29:18.770Z,30.96
2018-04-18T15:31:47.321Z,31.64
2018-04-18T15:34:15.791Z,31.54
2018-04-18T15:36:44.289Z,32.01
2018-04-18T15:39:12.745Z,32.45
2018-04-18T15:41:41.258Z,32.58
2018-04-18T15:44:09.697Z,32.63
2018-04-18T15:46:38.194Z,33.05
2018-04-18T15:49:06.693Z,33.50
2018-04-18T15:51:35.199Z,32.78
2018-04-18T15:54:03.661Z,32.63
2018-04-18T15:56:32.189Z,33.31
2018-04-18T15:59:00.657Z,33.13
2018-04-18T16:01:29.156Z,33.96
2018-04-18T16:03:57.656Z,34.59
2018-04-18T16:06:26.152Z,34.81
2018-04-18T16:08:54.749Z,34.33
2018-04-18T16:11:23.208Z,34.54
2018-04-18T16:13:51.673Z,34.59
2018-04-18T16:16:20.195Z,34.68
2018-04-18T16:18:48.649Z,35.12
2018-04-18T16:21:17.117Z,35.37
2018-04-18T16:23:45.610Z,35.40
2018-04-18T16:26:14.082Z,35.52
2018-04-18T16:28:42.599Z,35.19
2018-04-18T16:31:11.060Z,35.40
2018-04-18T16:33:39.574Z,35.68
2018-04-18T16:36:08.029Z,35.63
2018-04-18T16:38:36.533Z,35.67
2018-04-18T16:41:05.031Z,35.90
2018-04-18T16:43:33.528Z,36.24
2018-04-18T16:46:02.093Z,36.46
2018-04-18T16:48:30.584Z,36.71
2018-04-18T16:50:59.904Z,37.38
2018-04-18T16:53:28.357Z,37.54
2018-04-18T16:55:56.874Z,37.82
2018-04-18T16:58:25.342Z,38.25
2018-04-18T17:00:53.809Z,38.12
2018-04-18T17:03:22.309Z,37.29
2018-04-18T17:05:50.772Z,35.64
2018-04-18T17:08:19.264Z,35.77
2018-04-18T17:10:47.738Z,36.30
2018-04-18T17:13:16.228Z,37.08
2018-04-18T17:15:44.725Z,37.40
2018-04-18T17:18:13.229Z,37.82
2018-04-18T17:20:41.709Z,38.33
2018-04-18T17:23:10.305Z,38.46
2018-04-18T17:25:38.811Z,38.60
2018-04-18T17:28:07.268Z,38.45
2018-04-18T17:30:35.785Z,38.55
2018-04-18T17:33:04.264Z,38.46
2018-04-18T17:35:32.735Z,38.64
2018-04-18T17:38:01.253Z,39.08
2018-04-18T17:40:29.724Z,39.09
2018-04-18T17:42:58.225Z,39.18
2018-04-18T17:45:26.688Z,39.44
2018-04-18T17:47:55.187Z,39.33
2018-04-18T17:50:23.654Z,39.64
2018-04-18T17:52:52.156Z,39.72
2018-04-18T17:55:20.669Z,39.95
2018-04-18T17:57:49.187Z,39.86
2018-04-18T18:00:17.720Z,39.95
2018-04-18T18:02:46.205Z,40.04
2018-04-18T18:05:14.695Z,40.12
2018-04-18T18:07:43.189Z,40.32
2018-04-18T18:10:11.685Z,40.56
2018-04-18T18:12:40.148Z,40.59
2018-04-18T18:15:08.624Z,40.51
2018-04-18T18:17:37.132Z,40.74
2018-04-18T18:20:05.667Z,40.67
2018-04-18T18:22:34.177Z,40.93
2018-04-18T18:25:02.727Z,41.11
2018-04-18T18:27:31.214Z,41.33
2018-04-18T18:29:59.685Z,41.49
2018-04-18T18:32:28.197Z,41.49
2018-04-18T18:34:56.701Z,41.42
2018-04-18T18:37:25.168Z,41.58
2018-04-18T18:39:53.677Z,41.73
2018-04-18T18:42:22.162Z,42.07
2018-04-18T18:44:50.645Z,42.46
2018-04-18T18:47:19.215Z,42.50
2018-04-18T18:49:47.759Z,42.80
2018-04-18T18:52:16.245Z,42.80
2018-04-18T18:54:44.708Z,42.83
2018-04-18T18:57:13.214Z,42.77
2018-04-18T18:59:41.684Z,42.86
2018-04-18T19:02:10.164Z,43.04
2018-04-18T19:04:38.664Z,43.12
2018-04-18T19:07:07.108Z,43.18
2018-04-18T19:09:35.617Z,43.39
2018-04-18T19:12:04.094Z,43.52
2018-04-18T19:14:32.590Z,43.62
2018-04-18T19:17:01.106Z,43.78
2018-04-18T19:19:29.632Z,43.57
2018-04-18T19:21:58.134Z,43.61
2018-04-18T19:24:26.611Z,43.82
2018-04-18T19:26:55.085Z,43.92
2018-04-18T19:29:23.595Z,43.97
2018-04-18T19:31:52.069Z,43.84
2018-04-18T19:34:20.543Z,43.78
2018-04-18T19:36:49.071Z,44.14
2018-04-18T19:39:17.552Z,44.36
2018-04-18T19:41:46.081Z,44.22
2018-04-18T19:44:14.540Z,44.16
2018-04-18T19:46:43.064Z,44.34
2018-04-18T19:49:11.525Z,44.65
2018-04-18T19:51:40.023Z,45.06
2018-04-18T19:54:08.476Z,44.87
2018-04-18T19:56:36.958Z,45.37
2018-04-18T19:59:05.428Z,45.54
2018-04-18T20:01:33.917Z,45.70
2018-04-18T20:04:02.380Z,46.01
2018-04-18T20:06:30.888Z,45.96
2018-04-18T20:08:59.332Z,46.02
2018-04-18T20:11:27.829Z,46.29
2018-04-18T20:13:56.296Z,46.45
2018-04-18T20:16:24.787Z,46.36
2018-04-18T20:18:53.286Z,46.39
2018-04-18T20:21:21.744Z,46.44
2018-04-18T20:23:50.245Z,46.70
2018-04-18T20:26:18.748Z,46.40
2018-04-18T20:28:47.218Z,46.54
2018-04-18T20:31:15.677Z,46.42
2018-04-18T20:33:44.184Z,46.63
2018-04-18T20:36:12.680Z,46.59
2018-04-18T20:38:41.133Z,46.79
2018-04-18T20:41:09.641Z,46.63
2018-04-18T20:43:38.191Z,46.69
2018-04-18T20:46:06.622Z,46.59
2018-04-18T20:48:35.139Z,46.63
2018-04-18T20:51:03.617Z,46.53
2018-04-18T20:53:32.134Z,46.67
2018-04-18T20:56:00.632Z,46.61
2018-04-18T20:58:29.093Z,46.73
2018-04-18T21:00:57.601Z,47.00
2018-04-18T21:03:26.047Z,47.05
2018-04-18T21:05:54.535Z,46.89
2018-04-18T21:08:23.048Z,47.11
2018-04-18T21:10:51.505Z,47.29
2018-04-18T21:13:20.024Z,47.47
2018-04-18T21:15:48.491Z,47.68
2018-04-18T21:18:16.965Z,47.76
2018-04-18T21:20:45.537Z,47.65
2018-04-18T21:23:14.053Z,47.30
2018-04-18T21:25:42.521Z,47.21
2018-04-18T21:28:10.986Z,47.47
2018-04-18T21:30:39.485Z,47.45
2018-04-18T21:33:07.954Z,47.39
2018-04-18T21:35:36.465Z,47.60
2018-04-18T21:38:04.928Z,47.74
2018-04-18T21:40:33.414Z,47.70
2018-04-18T21:43:01.953Z,47.67
2018-04-18T21:45:30.430Z,47.57
2018-04-18T21:47:58.918Z,47.57
2018-04-18T21:50:27.421Z,47.34
2018-04-18T21:52:55.882Z,47.29
2018-04-18T21:55:24.388Z,47.96
2018-04-18T21:57:52.845Z,48.06
2018-04-18T22:00:21.408Z,48.05
2018-04-18T22:02:49.881Z,48.26
2018-04-18T22:05:18.408Z,48.04
2018-04-18T22:07:46.900Z,48.46
2018-04-18T22:10:15.436Z,48.65
2018-04-18T22:12:43.916Z,49.35
2018-04-18T22:15:12.425Z,49.10
2018-04-18T22:17:40.921Z,49.10
2018-04-18T22:20:09.385Z,49.04
2018-04-18T22:22:37.892Z,49.32
2018-04-18T22:25:06.355Z,49.35
2018-04-18T22:27:34.848Z,49.45
2018-04-18T22:30:03.370Z,49.61
2018-04-18T22:32:31.835Z,49.53
2018-04-18T22:35:00.321Z,49.24
2018-04-18T22:37:28.832Z,49.23
2018-04-18T22:39:57.317Z,49.07
2018-04-18T22:42:25.766Z,49.07
2018-04-18T22:44:54.272Z,49.03
2018-04-18T22:47:22.751Z,48.76
2018-04-18T22:49:51.253Z,48.76
2018-04-18T22:52:19.762Z,48.93
2018-04-18T22:54:48.245Z,49.11
2018-04-18T22:57:16.780Z,49.21
2018-04-18T22:59:45.239Z,49.17
2018-04-18T23:02:13.771Z,49.09
2018-04-18T23:04:42.244Z,49.56
2018-04-18T23:07:10.744Z,49.47
2018-04-18T23:09:39.252Z,49.48
2018-04-18T23:12:07.705Z,49.60
2018-04-18T23:14:36.216Z,49.68
2018-04-18T23:17:04.694Z,50.06
2018-04-18T23:19:33.185Z,50.05
2018-04-18T23:22:01.677Z,50.03
2018-04-18T23:24:30.236Z,50.16
2018-04-18T23:26:58.688Z,49.99
2018-04-18T23:29:27.153Z,49.88
2018-04-18T23:31:55.649Z,50.22
2018-04-18T23:34:24.154Z,50.23
2018-04-18T23:36:52.661Z,50.12
2018-04-18T23:39:21.222Z,50.40
2018-04-18T23:41:49.688Z,50.12
2018-04-18T23:44:18.189Z,50.54
2018-04-18T23:46:46.640Z,50.43
2018-04-18T23:49:15.154Z,50.50
2018-04-18T23:51:43.634Z,50.70
2018-04-18T23:54:12.137Z,50.95
2018-04-18T23:56:40.605Z,50.85
2018-04-18T23:59:09.100Z,51.12
